sensor_id;sensor_type;location;lat;lon;timestamp;P1;durP1;ratioP1;P2;durP2;ratioP2
36651;SDS011;53334;51.976;20.144;2024-02-21T00:00:13;8.48;;;5.07;;
36651;SDS011;53334;51.976;20.144;2024-02-21T00:02:48;10.10;;;5.15;;
36651;SDS011;53334;51.976;20.144;2024-02-21T00:05:22;7.20;;;4.53;;
36651;SDS011;53334;51.976;20.144;2024-02-21T00:07:57;8.60;;;5.15;;
36651;SDS011;53334;51.976;20.144;2024-02-21T00:10:31;9.32;;;5.10;;
36651;SDS011;53334;51.976;20.144;2024-02-21T00:13:04;7.28;;;4.53;;
36651;SDS011;53334;51.976;20.144;2024-02-21T00:15:38;8.60;;;4.85;;
36651;SDS011;53334;51.976;20.144;2024-02-21T00:18:12;10.27;;;5.00;;
36651;SDS011;53334;51.976;20.144;2024-02-21T00:20:45;8.43;;;4.85;;
36651;SDS011;53334;51.976;20.144;2024-02-21T00:23:19;10.48;;;5.05;;
36651;SDS011;53334;51.976;20.144;2024-02-21T00:25:52;9.55;;;4.93;;
36651;SDS011;53334;51.976;20.144;2024-02-21T00:28:25;38.63;;;5.80;;
36651;SDS011;53334;51.976;20.144;2024-02-21T00:30:59;8.70;;;5.28;;
36651;SDS011;53334;51.976;20.144;2024-02-21T00:33:33;8.45;;;4.28;;
36651;SDS011;53334;51.976;20.144;2024-02-21T00:36:06;9.85;;;4.93;;
36651;SDS011;53334;51.976;20.144;2024-02-21T00:38:40;8.00;;;4.88;;
36651;SDS011;53334;51.976;20.144;2024-02-21T00:41:13;9.35;;;5.55;;
36651;SDS011;53334;51.976;20.144;2024-02-21T00:43:46;7.50;;;4.47;;
36651;SDS011;53334;51.976;20.144;2024-02-21T00:46:20;8.13;;;4.95;;
36651;SDS011;53334;51.976;20.144;2024-02-21T00:48:54;11.93;;;4.90;;
36651;SDS011;53334;51.976;20.144;2024-02-21T00:51:28;8.15;;;4.85;;
36651;SDS011;53334;51.976;20.144;2024-02-21T00:54:01;9.32;;;4.82;;
36651;SDS011;53334;51.976;20.144;2024-02-21T00:56:35;9.57;;;5.10;;
36651;SDS011;53334;51.976;20.144;2024-02-21T00:59:08;10.75;;;4.93;;
36651;SDS011;53334;51.976;20.144;2024-02-21T01:01:41;7.35;;;4.32;;
36651;SDS011;53334;51.976;20.144;2024-02-21T01:04:16;9.15;;;5.25;;
36651;SDS011;53334;51.976;20.144;2024-02-21T01:06:49;7.78;;;4.45;;
36651;SDS011;53334;51.976;20.144;2024-02-21T01:09:22;9.85;;;5.13;;
36651;SDS011;53334;51.976;20.144;2024-02-21T01:11:55;8.00;;;4.82;;
36651;SDS011;53334;51.976;20.144;2024-02-21T01:14:29;8.00;;;4.78;;
36651;SDS011;53334;51.976;20.144;2024-02-21T01:17:02;6.00;;;4.20;;
36651;SDS011;53334;51.976;20.144;2024-02-21T01:19:38;8.02;;;4.88;;
36651;SDS011;53334;51.976;20.144;2024-02-21T01:22:12;8.02;;;4.97;;
36651;SDS011;53334;51.976;20.144;2024-02-21T01:24:46;7.50;;;4.30;;
36651;SDS011;53334;51.976;20.144;2024-02-21T01:27:19;8.05;;;4.63;;
36651;SDS011;53334;51.976;20.144;2024-02-21T01:29:52;8.63;;;4.97;;
36651;SDS011;53334;51.976;20.144;2024-02-21T01:32:26;8.63;;;4.47;;
36651;SDS011;53334;51.976;20.144;2024-02-21T01:35:00;8.07;;;4.72;;
36651;SDS011;53334;51.976;20.144;2024-02-21T01:37:33;7.95;;;4.63;;
36651;SDS011;53334;51.976;20.144;2024-02-21T01:40:07;10.48;;;4.47;;
36651;SDS011;53334;51.976;20.144;2024-02-21T01:42:41;7.53;;;4.05;;
36651;SDS011;53334;51.976;20.144;2024-02-21T01:45:15;7.45;;;4.25;;
36651;SDS011;53334;51.976;20.144;2024-02-21T01:47:49;7.90;;;3.97;;
36651;SDS011;53334;51.976;20.144;2024-02-21T01:50:24;7.65;;;4.22;;
36651;SDS011;53334;51.976;20.144;2024-02-21T01:52:58;9.65;;;4.72;;
36651;SDS011;53334;51.976;20.144;2024-02-21T01:55:31;12.13;;;4.03;;
36651;SDS011;53334;51.976;20.144;2024-02-21T01:58:05;5.78;;;3.95;;
36651;SDS011;53334;51.976;20.144;2024-02-21T02:00:39;6.88;;;3.90;;
36651;SDS011;53334;51.976;20.144;2024-02-21T02:03:14;8.05;;;4.80;;
36651;SDS011;53334;51.976;20.144;2024-02-21T02:05:50;5.45;;;4.05;;
36651;SDS011;53334;51.976;20.144;2024-02-21T02:08:23;5.70;;;4.15;;
36651;SDS011;53334;51.976;20.144;2024-02-21T02:10:56;7.75;;;5.07;;
36651;SDS011;53334;51.976;20.144;2024-02-21T02:13:30;8.07;;;4.00;;
36651;SDS011;53334;51.976;20.144;2024-02-21T02:16:03;10.93;;;5.50;;
36651;SDS011;53334;51.976;20.144;2024-02-21T02:18:37;5.95;;;4.28;;
36651;SDS011;53334;51.976;20.144;2024-02-21T02:21:13;7.75;;;4.57;;
36651;SDS011;53334;51.976;20.144;2024-02-21T02:23:57;7.22;;;4.55;;
36651;SDS011;53334;51.976;20.144;2024-02-21T02:26:31;11.50;;;4.90;;
36651;SDS011;53334;51.976;20.144;2024-02-21T02:29:04;9.57;;;5.05;;
36651;SDS011;53334;51.976;20.144;2024-02-21T02:31:37;8.45;;;4.35;;
36651;SDS011;53334;51.976;20.144;2024-02-21T02:34:11;6.78;;;4.22;;
36651;SDS011;53334;51.976;20.144;2024-02-21T02:36:44;7.38;;;4.55;;
36651;SDS011;53334;51.976;20.144;2024-02-21T02:39:21;6.60;;;4.45;;
36651;SDS011;53334;51.976;20.144;2024-02-21T02:41:54;5.47;;;4.05;;
36651;SDS011;53334;51.976;20.144;2024-02-21T02:44:27;7.75;;;4.25;;
36651;SDS011;53334;51.976;20.144;2024-02-21T02:47:01;8.80;;;4.78;;
36651;SDS011;53334;51.976;20.144;2024-02-21T02:52:07;8.02;;;4.35;;
36651;SDS011;53334;51.976;20.144;2024-02-21T02:54:42;6.88;;;4.07;;
36651;SDS011;53334;51.976;20.144;2024-02-21T02:57:15;8.52;;;5.18;;
36651;SDS011;53334;51.976;20.144;2024-02-21T02:59:48;4.97;;;3.58;;
36651;SDS011;53334;51.976;20.144;2024-02-21T03:04:55;7.47;;;4.50;;
36651;SDS011;53334;51.976;20.144;2024-02-21T03:07:28;13.18;;;5.00;;
36651;SDS011;53334;51.976;20.144;2024-02-21T03:10:03;5.80;;;3.80;;
36651;SDS011;53334;51.976;20.144;2024-02-21T03:12:37;10.95;;;5.05;;
36651;SDS011;53334;51.976;20.144;2024-02-21T03:15:10;6.85;;;4.43;;
36651;SDS011;53334;51.976;20.144;2024-02-21T03:17:44;8.88;;;4.55;;
36651;SDS011;53334;51.976;20.144;2024-02-21T03:20:17;6.85;;;4.07;;
36651;SDS011;53334;51.976;20.144;2024-02-21T03:22:51;8.60;;;4.35;;
36651;SDS011;53334;51.976;20.144;2024-02-21T03:25:26;7.65;;;4.68;;
36651;SDS011;53334;51.976;20.144;2024-02-21T03:27:59;7.03;;;4.13;;
36651;SDS011;53334;51.976;20.144;2024-02-21T03:33:06;6.03;;;4.32;;
36651;SDS011;53334;51.976;20.144;2024-02-21T03:35:39;6.88;;;4.40;;
36651;SDS011;53334;51.976;20.144;2024-02-21T03:38:12;5.88;;;4.43;;
36651;SDS011;53334;51.976;20.144;2024-02-21T03:40:47;8.30;;;4.93;;
36651;SDS011;53334;51.976;20.144;2024-02-21T03:43:20;7.60;;;4.65;;
36651;SDS011;53334;51.976;20.144;2024-02-21T03:45:54;6.82;;;4.40;;
36651;SDS011;53334;51.976;20.144;2024-02-21T03:48:27;6.65;;;4.75;;
36651;SDS011;53334;51.976;20.144;2024-02-21T03:51:00;7.97;;;4.53;;
36651;SDS011;53334;51.976;20.144;2024-02-21T03:53:33;7.05;;;4.53;;
36651;SDS011;53334;51.976;20.144;2024-02-21T03:56:08;5.53;;;4.35;;
36651;SDS011;53334;51.976;20.144;2024-02-21T03:58:41;6.20;;;4.43;;
36651;SDS011;53334;51.976;20.144;2024-02-21T04:01:15;7.60;;;4.70;;
36651;SDS011;53334;51.976;20.144;2024-02-21T04:03:48;8.05;;;4.60;;
36651;SDS011;53334;51.976;20.144;2024-02-21T04:06:22;7.57;;;4.95;;
36651;SDS011;53334;51.976;20.144;2024-02-21T04:08:55;6.18;;;4.18;;
36651;SDS011;53334;51.976;20.144;2024-02-21T04:11:30;7.05;;;4.43;;
36651;SDS011;53334;51.976;20.144;2024-02-21T04:14:19;6.85;;;4.57;;
36651;SDS011;53334;51.976;20.144;2024-02-21T04:16:52;7.25;;;4.70;;
36651;SDS011;53334;51.976;20.144;2024-02-21T04:19:25;6.28;;;4.57;;
36651;SDS011;53334;51.976;20.144;2024-02-21T04:21:58;7.05;;;4.38;;
36651;SDS011;53334;51.976;20.144;2024-02-21T04:24:32;8.00;;;4.63;;
36651;SDS011;53334;51.976;20.144;2024-02-21T04:27:06;9.93;;;4.97;;
36651;SDS011;53334;51.976;20.144;2024-02-21T04:29:40;5.93;;;3.78;;
36651;SDS011;53334;51.976;20.144;2024-02-21T04:32:13;6.15;;;4.55;;
36651;SDS011;53334;51.976;20.144;2024-02-21T04:34:46;8.48;;;4.28;;
36651;SDS011;53334;51.976;20.144;2024-02-21T04:37:20;5.07;;;3.30;;
36651;SDS011;53334;51.976;20.144;2024-02-21T04:39:53;6.00;;;4.07;;
36651;SDS011;53334;51.976;20.144;2024-02-21T04:42:27;8.48;;;4.80;;
36651;SDS011;53334;51.976;20.144;2024-02-21T04:45:01;6.68;;;4.32;;
36651;SDS011;53334;51.976;20.144;2024-02-21T04:47:34;7.35;;;4.45;;
36651;SDS011;53334;51.976;20.144;2024-02-21T04:50:08;7.25;;;4.90;;
36651;SDS011;53334;51.976;20.144;2024-02-21T04:52:42;7.63;;;4.80;;
36651;SDS011;53334;51.976;20.144;2024-02-21T04:55:16;8.60;;;5.07;;
36651;SDS011;53334;51.976;20.144;2024-02-21T04:57:51;7.93;;;4.97;;
36651;SDS011;53334;51.976;20.144;2024-02-21T05:00:25;8.88;;;4.20;;
36651;SDS011;53334;51.976;20.144;2024-02-21T05:02:58;9.80;;;5.07;;
36651;SDS011;53334;51.976;20.144;2024-02-21T05:05:31;6.75;;;3.90;;
36651;SDS011;53334;51.976;20.144;2024-02-21T05:08:05;7.68;;;4.47;;
36651;SDS011;53334;51.976;20.144;2024-02-21T05:10:38;6.03;;;4.68;;
36651;SDS011;53334;51.976;20.144;2024-02-21T05:13:13;8.48;;;4.68;;
36651;SDS011;53334;51.976;20.144;2024-02-21T05:15:47;8.50;;;4.88;;
36651;SDS011;53334;51.976;20.144;2024-02-21T05:18:20;7.18;;;4.60;;
36651;SDS011;53334;51.976;20.144;2024-02-21T05:20:54;7.00;;;4.20;;
36651;SDS011;53334;51.976;20.144;2024-02-21T05:23:27;6.93;;;4.80;;
36651;SDS011;53334;51.976;20.144;2024-02-21T05:26:00;8.25;;;4.60;;
36651;SDS011;53334;51.976;20.144;2024-02-21T05:28:35;6.20;;;4.57;;
36651;SDS011;53334;51.976;20.144;2024-02-21T05:31:09;12.68;;;5.72;;
36651;SDS011;53334;51.976;20.144;2024-02-21T05:33:42;6.13;;;4.22;;
36651;SDS011;53334;51.976;20.144;2024-02-21T05:36:16;7.60;;;4.95;;
36651;SDS011;53334;51.976;20.144;2024-02-21T05:38:49;8.85;;;5.00;;
36651;SDS011;53334;51.976;20.144;2024-02-21T05:41:22;7.75;;;4.95;;
36651;SDS011;53334;51.976;20.144;2024-02-21T05:43:57;6.50;;;4.47;;
36651;SDS011;53334;51.976;20.144;2024-02-21T05:46:30;8.10;;;4.80;;
36651;SDS011;53334;51.976;20.144;2024-02-21T05:49:03;7.47;;;4.88;;
36651;SDS011;53334;51.976;20.144;2024-02-21T05:51:38;7.45;;;4.57;;
36651;SDS011;53334;51.976;20.144;2024-02-21T05:54:11;7.80;;;5.95;;
36651;SDS011;53334;51.976;20.144;2024-02-21T05:56:45;10.73;;;5.25;;
36651;SDS011;53334;51.976;20.144;2024-02-21T05:59:19;6.97;;;5.05;;
36651;SDS011;53334;51.976;20.144;2024-02-21T06:01:56;8.85;;;6.07;;
36651;SDS011;53334;51.976;20.144;2024-02-21T06:04:30;15.05;;;6.55;;
36651;SDS011;53334;51.976;20.144;2024-02-21T06:07:03;10.05;;;6.53;;
36651;SDS011;53334;51.976;20.144;2024-02-21T06:09:36;11.07;;;6.18;;
36651;SDS011;53334;51.976;20.144;2024-02-21T06:12:10;7.05;;;5.53;;
36651;SDS011;53334;51.976;20.144;2024-02-21T06:14:44;11.55;;;6.75;;
36651;SDS011;53334;51.976;20.144;2024-02-21T06:17:17;11.60;;;6.15;;
36651;SDS011;53334;51.976;20.144;2024-02-21T06:19:51;9.93;;;6.90;;
36651;SDS011;53334;51.976;20.144;2024-02-21T06:22:24;10.57;;;6.53;;
36651;SDS011;53334;51.976;20.144;2024-02-21T06:24:57;10.82;;;6.57;;
36651;SDS011;53334;51.976;20.144;2024-02-21T06:27:30;11.15;;;6.85;;
36651;SDS011;53334;51.976;20.144;2024-02-21T06:30:05;8.45;;;6.63;;
36651;SDS011;53334;51.976;20.144;2024-02-21T06:32:41;9.45;;;6.18;;
36651;SDS011;53334;51.976;20.144;2024-02-21T06:35:14;9.45;;;6.60;;
36651;SDS011;53334;51.976;20.144;2024-02-21T06:37:48;8.93;;;5.93;;
36651;SDS011;53334;51.976;20.144;2024-02-21T06:40:23;11.15;;;6.60;;
36651;SDS011;53334;51.976;20.144;2024-02-21T06:42:56;15.57;;;6.50;;
36651;SDS011;53334;51.976;20.144;2024-02-21T06:45:31;13.52;;;6.82;;
36651;SDS011;53334;51.976;20.144;2024-02-21T06:48:04;11.63;;;6.35;;
36651;SDS011;53334;51.976;20.144;2024-02-21T06:53:11;11.70;;;6.70;;
36651;SDS011;53334;51.976;20.144;2024-02-21T06:55:44;9.32;;;5.93;;
36651;SDS011;53334;51.976;20.144;2024-02-21T06:58:17;9.50;;;5.88;;
36651;SDS011;53334;51.976;20.144;2024-02-21T07:00:52;9.88;;;6.43;;
36651;SDS011;53334;51.976;20.144;2024-02-21T07:03:25;10.32;;;6.32;;
36651;SDS011;53334;51.976;20.144;2024-02-21T07:05:58;10.55;;;6.07;;
36651;SDS011;53334;51.976;20.144;2024-02-21T07:11:05;8.68;;;5.93;;
36651;SDS011;53334;51.976;20.144;2024-02-21T07:13:38;16.58;;;5.45;;
36651;SDS011;53334;51.976;20.144;2024-02-21T07:16:13;11.35;;;6.28;;
36651;SDS011;53334;51.976;20.144;2024-02-21T07:18:46;18.48;;;6.82;;
36651;SDS011;53334;51.976;20.144;2024-02-21T07:21:19;11.35;;;5.75;;
36651;SDS011;53334;51.976;20.144;2024-02-21T07:23:53;20.60;;;6.45;;
36651;SDS011;53334;51.976;20.144;2024-02-21T07:26:26;10.48;;;6.47;;
36651;SDS011;53334;51.976;20.144;2024-02-21T07:28:59;15.98;;;6.90;;
36651;SDS011;53334;51.976;20.144;2024-02-21T07:31:39;12.80;;;6.78;;
36651;SDS011;53334;51.976;20.144;2024-02-21T07:34:13;20.92;;;6.22;;
36651;SDS011;53334;51.976;20.144;2024-02-21T07:36:47;10.05;;;5.97;;
36651;SDS011;53334;51.976;20.144;2024-02-21T07:39:20;17.15;;;6.25;;
36651;SDS011;53334;51.976;20.144;2024-02-21T07:41:53;14.48;;;6.43;;
36651;SDS011;53334;51.976;20.144;2024-02-21T07:44:27;11.85;;;6.03;;
36651;SDS011;53334;51.976;20.144;2024-02-21T07:47:01;16.67;;;6.38;;
36651;SDS011;53334;51.976;20.144;2024-02-21T07:49:40;12.00;;;5.88;;
36651;SDS011;53334;51.976;20.144;2024-02-21T07:52:14;18.52;;;6.40;;
36651;SDS011;53334;51.976;20.144;2024-02-21T07:54:47;20.70;;;6.82;;
36651;SDS011;53334;51.976;20.144;2024-02-21T07:57:21;14.18;;;6.80;;
36651;SDS011;53334;51.976;20.144;2024-02-21T07:59:54;16.38;;;6.72;;
36651;SDS011;53334;51.976;20.144;2024-02-21T08:02:28;14.93;;;7.20;;
36651;SDS011;53334;51.976;20.144;2024-02-21T08:05:02;20.23;;;6.72;;
36651;SDS011;53334;51.976;20.144;2024-02-21T08:07:36;16.50;;;6.65;;
36651;SDS011;53334;51.976;20.144;2024-02-21T08:10:09;16.98;;;9.00;;
36651;SDS011;53334;51.976;20.144;2024-02-21T08:12:42;21.95;;;12.82;;
36651;SDS011;53334;51.976;20.144;2024-02-21T08:15:16;21.23;;;15.15;;
36651;SDS011;53334;51.976;20.144;2024-02-21T08:17:50;34.75;;;19.88;;
36651;SDS011;53334;51.976;20.144;2024-02-21T08:20:23;35.40;;;21.05;;
36651;SDS011;53334;51.976;20.144;2024-02-21T08:22:57;33.42;;;21.02;;
36651;SDS011;53334;51.976;20.144;2024-02-21T08:25:30;31.90;;;22.02;;
36651;SDS011;53334;51.976;20.144;2024-02-21T08:28:04;34.35;;;21.92;;
36651;SDS011;53334;51.976;20.144;2024-02-21T08:30:38;33.28;;;21.90;;
36651;SDS011;53334;51.976;20.144;2024-02-21T08:33:12;42.17;;;24.17;;
36651;SDS011;53334;51.976;20.144;2024-02-21T08:35:45;45.63;;;22.67;;
36651;SDS011;53334;51.976;20.144;2024-02-21T08:38:19;28.15;;;14.88;;
36651;SDS011;53334;51.976;20.144;2024-02-21T08:40:52;29.33;;;16.15;;
36651;SDS011;53334;51.976;20.144;2024-02-21T08:43:25;26.13;;;14.07;;
36651;SDS011;53334;51.976;20.144;2024-02-21T08:45:58;25.67;;;14.18;;
36651;SDS011;53334;51.976;20.144;2024-02-21T08:48:33;24.02;;;13.98;;
36651;SDS011;53334;51.976;20.144;2024-02-21T08:51:07;26.35;;;14.20;;
36651;SDS011;53334;51.976;20.144;2024-02-21T08:53:40;27.67;;;14.73;;
36651;SDS011;53334;51.976;20.144;2024-02-21T08:56:13;21.52;;;12.35;;
36651;SDS011;53334;51.976;20.144;2024-02-21T08:58:47;22.35;;;12.43;;
36651;SDS011;53334;51.976;20.144;2024-02-21T09:01:20;26.98;;;11.18;;
36651;SDS011;53334;51.976;20.144;2024-02-21T09:03:55;19.70;;;10.27;;
36651;SDS011;53334;51.976;20.144;2024-02-21T09:06:28;17.70;;;9.38;;
36651;SDS011;53334;51.976;20.144;2024-02-21T09:09:04;17.48;;;9.52;;
36651;SDS011;53334;51.976;20.144;2024-02-21T09:11:39;19.85;;;10.00;;
36651;SDS011;53334;51.976;20.144;2024-02-21T09:14:13;24.83;;;10.88;;
36651;SDS011;53334;51.976;20.144;2024-02-21T09:16:46;17.70;;;9.55;;
36651;SDS011;53334;51.976;20.144;2024-02-21T09:19:20;21.10;;;10.25;;
36651;SDS011;53334;51.976;20.144;2024-02-21T09:21:54;17.90;;;9.52;;
36651;SDS011;53334;51.976;20.144;2024-02-21T09:24:27;23.05;;;9.27;;
36651;SDS011;53334;51.976;20.144;2024-02-21T09:27:01;20.10;;;9.80;;
36651;SDS011;53334;51.976;20.144;2024-02-21T09:29:34;16.13;;;9.07;;
36651;SDS011;53334;51.976;20.144;2024-02-21T09:32:07;18.75;;;9.82;;
36651;SDS011;53334;51.976;20.144;2024-02-21T09:34:42;19.23;;;9.40;;
36651;SDS011;53334;51.976;20.144;2024-02-21T09:37:15;17.50;;;9.02;;
36651;SDS011;53334;51.976;20.144;2024-02-21T09:39:48;17.50;;;8.63;;
36651;SDS011;53334;51.976;20.144;2024-02-21T09:42:26;16.50;;;8.73;;
36651;SDS011;53334;51.976;20.144;2024-02-21T09:45:08;16.45;;;7.95;;
36651;SDS011;53334;51.976;20.144;2024-02-21T09:47:51;19.25;;;9.02;;
36651;SDS011;53334;51.976;20.144;2024-02-21T09:50:35;17.35;;;8.32;;
36651;SDS011;53334;51.976;20.144;2024-02-21T09:53:12;18.77;;;8.68;;
36651;SDS011;53334;51.976;20.144;2024-02-21T09:55:46;19.50;;;8.55;;
36651;SDS011;53334;51.976;20.144;2024-02-21T09:58:21;13.88;;;8.15;;
36651;SDS011;53334;51.976;20.144;2024-02-21T10:00:57;15.38;;;7.45;;
36651;SDS011;53334;51.976;20.144;2024-02-21T10:03:34;18.38;;;8.07;;
36651;SDS011;53334;51.976;20.144;2024-02-21T10:06:09;14.48;;;7.05;;
36651;SDS011;53334;51.976;20.144;2024-02-21T10:08:42;11.77;;;7.22;;
36651;SDS011;53334;51.976;20.144;2024-02-21T10:11:21;10.55;;;6.90;;
36651;SDS011;53334;51.976;20.144;2024-02-21T10:14:02;12.68;;;7.47;;
36651;SDS011;53334;51.976;20.144;2024-02-21T10:16:36;13.88;;;6.80;;
36651;SDS011;53334;51.976;20.144;2024-02-21T10:19:16;10.38;;;6.70;;
36651;SDS011;53334;51.976;20.144;2024-02-21T10:22:01;12.65;;;6.75;;
36651;SDS011;53334;51.976;20.144;2024-02-21T10:24:36;11.23;;;6.93;;
36651;SDS011;53334;51.976;20.144;2024-02-21T10:27:12;12.02;;;6.43;;
36651;SDS011;53334;51.976;20.144;2024-02-21T10:29:49;10.55;;;6.60;;
36651;SDS011;53334;51.976;20.144;2024-02-21T10:32:24;11.45;;;6.88;;
36651;SDS011;53334;51.976;20.144;2024-02-21T10:35:01;10.77;;;6.85;;
36651;SDS011;53334;51.976;20.144;2024-02-21T10:37:37;13.70;;;7.18;;
36651;SDS011;53334;51.976;20.144;2024-02-21T10:40:11;12.95;;;7.25;;
36651;SDS011;53334;51.976;20.144;2024-02-21T10:45:18;15.52;;;7.93;;
36651;SDS011;53334;51.976;20.144;2024-02-21T10:47:52;16.38;;;7.35;;
36651;SDS011;53334;51.976;20.144;2024-02-21T10:50:35;18.83;;;7.80;;
36651;SDS011;53334;51.976;20.144;2024-02-21T10:53:29;12.82;;;6.93;;
36651;SDS011;53334;51.976;20.144;2024-02-21T10:56:11;19.42;;;8.45;;
36651;SDS011;53334;51.976;20.144;2024-02-21T10:58:52;21.83;;;8.80;;
36651;SDS011;53334;51.976;20.144;2024-02-21T11:01:27;14.32;;;7.85;;
36651;SDS011;53334;51.976;20.144;2024-02-21T11:04:04;13.00;;;6.65;;
36651;SDS011;53334;51.976;20.144;2024-02-21T11:06:39;11.35;;;7.20;;
36651;SDS011;53334;51.976;20.144;2024-02-21T11:09:15;13.63;;;7.63;;
36651;SDS011;53334;51.976;20.144;2024-02-21T11:11:49;11.73;;;6.50;;
36651;SDS011;53334;51.976;20.144;2024-02-21T11:14:23;12.43;;;6.53;;
36651;SDS011;53334;51.976;20.144;2024-02-21T11:16:59;12.25;;;6.72;;
36651;SDS011;53334;51.976;20.144;2024-02-21T11:19:34;13.07;;;6.65;;
36651;SDS011;53334;51.976;20.144;2024-02-21T11:22:14;15.52;;;7.20;;
36651;SDS011;53334;51.976;20.144;2024-02-21T11:24:50;10.30;;;6.43;;
36651;SDS011;53334;51.976;20.144;2024-02-21T11:27:25;10.80;;;6.97;;
36651;SDS011;53334;51.976;20.144;2024-02-21T11:29:58;9.88;;;6.25;;
36651;SDS011;53334;51.976;20.144;2024-02-21T11:32:31;12.95;;;6.45;;
36651;SDS011;53334;51.976;20.144;2024-02-21T11:35:05;18.08;;;7.75;;
36651;SDS011;53334;51.976;20.144;2024-02-21T11:37:40;12.27;;;6.88;;
36651;SDS011;53334;51.976;20.144;2024-02-21T11:40:15;11.20;;;6.82;;
36651;SDS011;53334;51.976;20.144;2024-02-21T11:42:49;17.45;;;9.20;;
36651;SDS011;53334;51.976;20.144;2024-02-21T11:45:25;33.97;;;17.52;;
36651;SDS011;53334;51.976;20.144;2024-02-21T11:47:58;46.78;;;24.08;;
36651;SDS011;53334;51.976;20.144;2024-02-21T11:50:34;53.75;;;26.20;;
36651;SDS011;53334;51.976;20.144;2024-02-21T11:53:08;55.53;;;27.42;;
36651;SDS011;53334;51.976;20.144;2024-02-21T11:58:18;71.63;;;36.10;;
36651;SDS011;53334;51.976;20.144;2024-02-21T12:00:51;66.53;;;37.50;;
36651;SDS011;53334;51.976;20.144;2024-02-21T12:03:25;62.83;;;32.60;;
36651;SDS011;53334;51.976;20.144;2024-02-21T12:05:58;63.05;;;33.13;;
36651;SDS011;53334;51.976;20.144;2024-02-21T12:08:40;59.58;;;33.45;;
36651;SDS011;53334;51.976;20.144;2024-02-21T12:11:22;54.70;;;30.60;;
36651;SDS011;53334;51.976;20.144;2024-02-21T12:13:58;53.30;;;30.20;;
36651;SDS011;53334;51.976;20.144;2024-02-21T12:16:35;57.55;;;31.10;;
36651;SDS011;53334;51.976;20.144;2024-02-21T12:19:08;58.30;;;29.48;;
36651;SDS011;53334;51.976;20.144;2024-02-21T12:21:44;49.92;;;28.35;;
36651;SDS011;53334;51.976;20.144;2024-02-21T12:24:17;43.22;;;25.85;;
36651;SDS011;53334;51.976;20.144;2024-02-21T12:26:56;52.28;;;27.33;;
36651;SDS011;53334;51.976;20.144;2024-02-21T12:29:30;48.42;;;25.40;;
36651;SDS011;53334;51.976;20.144;2024-02-21T12:32:04;48.15;;;24.75;;
36651;SDS011;53334;51.976;20.144;2024-02-21T12:34:37;46.25;;;23.92;;
36651;SDS011;53334;51.976;20.144;2024-02-21T12:37:24;41.15;;;21.98;;
36651;SDS011;53334;51.976;20.144;2024-02-21T12:39:58;40.35;;;21.90;;
36651;SDS011;53334;51.976;20.144;2024-02-21T12:42:32;43.88;;;22.75;;
36651;SDS011;53334;51.976;20.144;2024-02-21T12:45:06;40.55;;;20.13;;
36651;SDS011;53334;51.976;20.144;2024-02-21T12:47:40;39.03;;;19.92;;
36651;SDS011;53334;51.976;20.144;2024-02-21T12:50:13;32.78;;;18.95;;
36651;SDS011;53334;51.976;20.144;2024-02-21T12:55:21;35.42;;;18.50;;
36651;SDS011;53334;51.976;20.144;2024-02-21T12:57:55;29.13;;;15.68;;
36651;SDS011;53334;51.976;20.144;2024-02-21T13:00:29;29.33;;;15.30;;
36651;SDS011;53334;51.976;20.144;2024-02-21T13:03:03;31.77;;;16.58;;
36651;SDS011;53334;51.976;20.144;2024-02-21T13:05:36;28.15;;;14.90;;
36651;SDS011;53334;51.976;20.144;2024-02-21T13:08:10;28.77;;;15.73;;
36651;SDS011;53334;51.976;20.144;2024-02-21T13:10:43;22.23;;;13.30;;
36651;SDS011;53334;51.976;20.144;2024-02-21T13:13:18;25.95;;;14.32;;
36651;SDS011;53334;51.976;20.144;2024-02-21T13:15:52;30.42;;;14.07;;
36651;SDS011;53334;51.976;20.144;2024-02-21T13:18:25;23.73;;;13.88;;
36651;SDS011;53334;51.976;20.144;2024-02-21T13:20:58;22.50;;;13.00;;
36651;SDS011;53334;51.976;20.144;2024-02-21T13:23:31;18.15;;;11.68;;
36651;SDS011;53334;51.976;20.144;2024-02-21T13:26:05;24.33;;;12.13;;
36651;SDS011;53334;51.976;20.144;2024-02-21T13:28:40;19.63;;;12.02;;
36651;SDS011;53334;51.976;20.144;2024-02-21T13:31:14;19.55;;;10.82;;
36651;SDS011;53334;51.976;20.144;2024-02-21T13:33:48;16.70;;;10.27;;
36651;SDS011;53334;51.976;20.144;2024-02-21T13:36:21;18.63;;;10.10;;
36651;SDS011;53334;51.976;20.144;2024-02-21T13:38:55;16.10;;;9.43;;
36651;SDS011;53334;51.976;20.144;2024-02-21T13:41:28;20.08;;;10.25;;
36651;SDS011;53334;51.976;20.144;2024-02-21T13:44:03;16.50;;;9.77;;
36651;SDS011;53334;51.976;20.144;2024-02-21T13:46:36;14.73;;;9.13;;
36651;SDS011;53334;51.976;20.144;2024-02-21T13:49:10;16.23;;;9.73;;
36651;SDS011;53334;51.976;20.144;2024-02-21T13:51:44;20.00;;;10.90;;
36651;SDS011;53334;51.976;20.144;2024-02-21T13:54:17;18.92;;;10.60;;
36651;SDS011;53334;51.976;20.144;2024-02-21T13:56:50;17.73;;;9.93;;
36651;SDS011;53334;51.976;20.144;2024-02-21T13:59:25;13.30;;;8.27;;
36651;SDS011;53334;51.976;20.144;2024-02-21T14:01:58;20.55;;;9.68;;
36651;SDS011;53334;51.976;20.144;2024-02-21T14:04:32;20.13;;;10.02;;
36651;SDS011;53334;51.976;20.144;2024-02-21T14:07:05;15.25;;;9.02;;
36651;SDS011;53334;51.976;20.144;2024-02-21T14:09:39;20.02;;;10.60;;
36651;SDS011;53334;51.976;20.144;2024-02-21T14:12:12;18.33;;;9.98;;
36651;SDS011;53334;51.976;20.144;2024-02-21T14:14:49;14.35;;;8.27;;
36651;SDS011;53334;51.976;20.144;2024-02-21T14:17:23;15.63;;;9.13;;
36651;SDS011;53334;51.976;20.144;2024-02-21T14:22:30;11.60;;;8.27;;
36651;SDS011;53334;51.976;20.144;2024-02-21T14:25:03;15.23;;;9.05;;
36651;SDS011;53334;51.976;20.144;2024-02-21T14:30:11;21.45;;;9.80;;
36651;SDS011;53334;51.976;20.144;2024-02-21T14:32:45;15.85;;;9.13;;
36651;SDS011;53334;51.976;20.144;2024-02-21T14:35:18;15.35;;;8.88;;
36651;SDS011;53334;51.976;20.144;2024-02-21T14:37:52;17.08;;;8.88;;
36651;SDS011;53334;51.976;20.144;2024-02-21T14:40:27;14.82;;;8.98;;
36651;SDS011;53334;51.976;20.144;2024-02-21T14:43:01;12.95;;;8.00;;
36651;SDS011;53334;51.976;20.144;2024-02-21T14:45:36;14.85;;;7.85;;
36651;SDS011;53334;51.976;20.144;2024-02-21T14:48:10;15.25;;;8.45;;
36651;SDS011;53334;51.976;20.144;2024-02-21T14:50:44;15.90;;;9.23;;
36651;SDS011;53334;51.976;20.144;2024-02-21T14:53:17;19.55;;;8.35;;
36651;SDS011;53334;51.976;20.144;2024-02-21T14:55:51;21.58;;;8.15;;
36651;SDS011;53334;51.976;20.144;2024-02-21T14:58:24;22.88;;;8.90;;
36651;SDS011;53334;51.976;20.144;2024-02-21T15:00:58;20.75;;;8.63;;
36651;SDS011;53334;51.976;20.144;2024-02-21T15:03:32;21.48;;;8.55;;
36651;SDS011;53334;51.976;20.144;2024-02-21T15:06:05;18.77;;;9.70;;
36651;SDS011;53334;51.976;20.144;2024-02-21T15:08:38;23.10;;;8.68;;
36651;SDS011;53334;51.976;20.144;2024-02-21T15:11:12;16.85;;;8.65;;
36651;SDS011;53334;51.976;20.144;2024-02-21T15:13:45;21.35;;;9.00;;
36651;SDS011;53334;51.976;20.144;2024-02-21T15:16:20;15.07;;;7.70;;
36651;SDS011;53334;51.976;20.144;2024-02-21T15:18:54;17.52;;;7.72;;
36651;SDS011;53334;51.976;20.144;2024-02-21T15:21:27;13.77;;;7.53;;
36651;SDS011;53334;51.976;20.144;2024-02-21T15:24:02;16.35;;;7.68;;
36651;SDS011;53334;51.976;20.144;2024-02-21T15:26:35;15.65;;;8.43;;
36651;SDS011;53334;51.976;20.144;2024-02-21T15:29:09;14.75;;;7.70;;